»·PEaware :: N66M KJFK-KEWR

N66M :: KJFK-KEWR

FLIGHT INFORMATION

Flight Status: Arrived
Operator: Privately registered:
United States
More flights under this callsign
Pilot: Thomas S. (17015)
Aircraft: EMBRAER PHENOM 300
(E55P)
More flights by this aircraft type
Origin: KJFK Kennedy Intl
United States
Destination: KEWR Newark Intl
United States
More flights between these airports :: More routes between these airports
Route: JFK5 V16 DIXIE V276 RBV V249 SBJ
File this flight plan on PilotEdge
Remarks:
Altitude:
(Current/Filed)
6,000ft
Speed:
(Current/Filed)
220kts
Departed: 07-Dec-22 11:02 AM
Arrived: 07-Dec-22 11:35 AM
Distance/Time
Traveled:
18nm/0:32
Distance/Time
To Go:
Arrived

Flight Plot

Page will automatically refresh every two minutes.

Flight plan parsing failed; only flown route is shown


Map Options




Map Legend


Flown Route
Filed Route
Departure Airport
Arrival Airport
Navaid (VOR, NDB)
Fix

Horizontal Profiles

Position Reports

Time Latitude Longitude Heading Altitude Ground
Speed
07-Dec-22 10:41 40.650480 -73.810721 60 11ft 0kts
07-Dec-22 10:42 40.650480 -73.810721 60 11ft 0kts
07-Dec-22 10:43 40.650480 -73.810721 60 11ft 0kts
07-Dec-22 10:44 40.650480 -73.810721 60 11ft 0kts
07-Dec-22 10:45 40.650480 -73.810721 60 11ft 0kts
07-Dec-22 10:46 40.650480 -73.810721 60 11ft 0kts
07-Dec-22 10:47 40.650480 -73.810721 60 11ft 0kts
07-Dec-22 10:48 40.650480 -73.810721 60 11ft 0kts
07-Dec-22 10:49 40.650480 -73.810721 60 11ft 0kts
07-Dec-22 10:50 40.650480 -73.810721 60 11ft 0kts
07-Dec-22 10:51 40.650328 -73.810587 231 11ft 5kts
07-Dec-22 10:52 40.650301 -73.810632 232 11ft 0kts
07-Dec-22 10:53 40.650301 -73.810632 232 11ft 0kts
07-Dec-22 10:54 40.650301 -73.810632 232 11ft 0kts
07-Dec-22 10:55 40.650301 -73.810632 232 11ft 0kts
07-Dec-22 10:56 40.650211 -73.810785 232 11ft 4kts
07-Dec-22 10:57 40.649220 -73.812351 249 11ft 11kts
07-Dec-22 10:58 40.649692 -73.815472 208 11ft 0kts
07-Dec-22 10:59 40.649541 -73.815584 210 11ft 5kts
07-Dec-22 11:00 40.648251 -73.816505 137 10ft 8kts
07-Dec-22 11:01 40.642852 -73.804620 121 33ft 139kts
07-Dec-22 11:02 40.601366 -73.761392 146 2705ft 226kts
07-Dec-22 11:03 40.543908 -73.779031 226 4978ft 257kts
07-Dec-22 11:04 40.496136 -73.846097 226 4999ft 246kts
07-Dec-22 11:05 40.441363 -73.908541 210 5689ft 274kts
07-Dec-22 11:06 40.376473 -73.957588 212 5997ft 262kts
07-Dec-22 11:07 40.341903 -74.044379 247 5058ft 279kts
07-Dec-22 11:08 40.313555 -74.132288 247 4994ft 262kts
07-Dec-22 11:09 40.295437 -74.222699 297 4774ft 263kts
07-Dec-22 11:10 40.348257 -74.290239 317 4130ft 265kts
07-Dec-22 11:11 40.416538 -74.313398 357 3451ft 262kts
07-Dec-22 11:12 40.485353 -74.295498 24 2998ft 248kts
07-Dec-22 11:13 40.546076 -74.257155 25 2797ft 234kts
07-Dec-22 11:14 40.602822 -74.221393 25 1653ft 189kts
07-Dec-22 11:15 40.639113 -74.198485 25 912ft 117kts
07-Dec-22 11:16 40.667720 -74.180413 25 321ft 112kts
07-Dec-22 11:17 40.707819 -74.151499 42 2484ft 209kts
07-Dec-22 11:18 40.748462 -74.093953 47 2496ft 208kts
07-Dec-22 11:19 40.795362 -74.078846 318 2568ft 194kts
07-Dec-22 11:20 40.810904 -74.155627 257 3016ft 222kts
07-Dec-22 11:21 40.797890 -74.233554 257 2999ft 216kts
07-Dec-22 11:22 40.771411 -74.298106 207 3008ft 209kts
07-Dec-22 11:23 40.716595 -74.335760 207 3041ft 248kts
07-Dec-22 11:24 40.655377 -74.377923 207 2999ft 244kts
07-Dec-22 11:25 40.594496 -74.419918 208 2999ft 250kts
07-Dec-22 11:26 40.532397 -74.441988 168 2994ft 222kts
07-Dec-22 11:27 40.489656 -74.394859 118 3004ft 217kts
07-Dec-22 11:28 40.477430 -74.323789 57 3028ft 218kts
07-Dec-22 11:29 40.521689 -74.272503 26 2987ft 203kts
07-Dec-22 11:30 40.571423 -74.241185 25 2359ft 199kts
07-Dec-22 11:31 40.618285 -74.211631 25 1411ft 152kts
07-Dec-22 11:32 40.650406 -74.191341 25 692ft 121kts
07-Dec-22 11:33 40.679938 -74.172785 25 28ft 113kts
07-Dec-22 11:34 40.693160 -74.166020 352 11ft 0kts
07-Dec-22 11:35 40.694848 -74.169008 175 11ft 6kts

Navigation Log

Ident Type
Flight plan parsing failed, navigation log unavailable